sensor_id;sensor_type;location;lat;lon;timestamp;P1;durP1;ratioP1;P2;durP2;ratioP2
27839;SDS011;15207;42.182;24.308;2023-12-20T00:01:00;44.30;;;24.30;;
27839;SDS011;15207;42.182;24.308;2023-12-20T00:03:26;55.20;;;29.50;;
27839;SDS011;15207;42.182;24.308;2023-12-20T00:05:51;44.80;;;26.10;;
27839;SDS011;15207;42.182;24.308;2023-12-20T00:08:17;45.95;;;25.40;;
27839;SDS011;15207;42.182;24.308;2023-12-20T00:10:45;43.80;;;25.90;;
27839;SDS011;15207;42.182;24.308;2023-12-20T00:13:11;47.90;;;27.80;;
27839;SDS011;15207;42.182;24.308;2023-12-20T00:15:36;48.75;;;26.95;;
27839;SDS011;15207;42.182;24.308;2023-12-20T00:18:02;46.60;;;27.00;;
27839;SDS011;15207;42.182;24.308;2023-12-20T00:20:28;47.85;;;26.25;;
27839;SDS011;15207;42.182;24.308;2023-12-20T00:22:56;45.00;;;25.60;;
27839;SDS011;15207;42.182;24.308;2023-12-20T00:27:51;48.05;;;27.65;;
27839;SDS011;15207;42.182;24.308;2023-12-20T00:30:16;47.20;;;26.45;;
27839;SDS011;15207;42.182;24.308;2023-12-20T00:32:42;42.25;;;25.45;;
27839;SDS011;15207;42.182;24.308;2023-12-20T00:35:13;42.05;;;24.20;;
27839;SDS011;15207;42.182;24.308;2023-12-20T00:40:06;42.40;;;25.20;;
27839;SDS011;15207;42.182;24.308;2023-12-20T00:42:32;47.10;;;26.00;;
27839;SDS011;15207;42.182;24.308;2023-12-20T00:44:58;46.10;;;27.10;;
27839;SDS011;15207;42.182;24.308;2023-12-20T00:47:24;42.90;;;25.05;;
27839;SDS011;15207;42.182;24.308;2023-12-20T00:49:50;44.20;;;26.20;;
27839;SDS011;15207;42.182;24.308;2023-12-20T00:52:15;39.05;;;24.55;;
27839;SDS011;15207;42.182;24.308;2023-12-20T00:54:42;43.00;;;26.05;;
27839;SDS011;15207;42.182;24.308;2023-12-20T00:57:08;46.10;;;25.60;;
27839;SDS011;15207;42.182;24.308;2023-12-20T01:01:59;40.55;;;25.35;;
27839;SDS011;15207;42.182;24.308;2023-12-20T01:04:24;45.05;;;27.45;;
27839;SDS011;15207;42.182;24.308;2023-12-20T01:06:50;44.30;;;26.20;;
27839;SDS011;15207;42.182;24.308;2023-12-20T01:09:15;42.30;;;25.70;;
27839;SDS011;15207;42.182;24.308;2023-12-20T01:11:40;44.35;;;27.05;;
27839;SDS011;15207;42.182;24.308;2023-12-20T01:14:06;44.70;;;26.50;;
27839;SDS011;15207;42.182;24.308;2023-12-20T01:18:56;44.95;;;27.10;;
27839;SDS011;15207;42.182;24.308;2023-12-20T01:21:22;46.90;;;26.40;;
27839;SDS011;15207;42.182;24.308;2023-12-20T01:23:48;42.10;;;24.60;;
27839;SDS011;15207;42.182;24.308;2023-12-20T01:26:14;40.35;;;23.95;;
27839;SDS011;15207;42.182;24.308;2023-12-20T01:28:40;48.30;;;26.30;;
27839;SDS011;15207;42.182;24.308;2023-12-20T01:31:05;46.00;;;28.73;;
27839;SDS011;15207;42.182;24.308;2023-12-20T01:33:31;56.95;;;32.05;;
27839;SDS011;15207;42.182;24.308;2023-12-20T01:35:56;60.25;;;34.50;;
27839;SDS011;15207;42.182;24.308;2023-12-20T01:38:22;64.45;;;38.55;;
27839;SDS011;15207;42.182;24.308;2023-12-20T01:43:12;62.80;;;38.60;;
27839;SDS011;15207;42.182;24.308;2023-12-20T01:45:38;60.40;;;36.20;;
27839;SDS011;15207;42.182;24.308;2023-12-20T01:48:03;59.13;;;32.90;;
27839;SDS011;15207;42.182;24.308;2023-12-20T01:50:30;62.25;;;36.60;;
27839;SDS011;15207;42.182;24.308;2023-12-20T01:52:57;61.30;;;35.80;;
27839;SDS011;15207;42.182;24.308;2023-12-20T01:55:25;59.30;;;35.20;;
27839;SDS011;15207;42.182;24.308;2023-12-20T02:00:17;56.20;;;32.15;;
27839;SDS011;15207;42.182;24.308;2023-12-20T02:02:43;50.40;;;29.20;;
27839;SDS011;15207;42.182;24.308;2023-12-20T02:05:10;52.30;;;30.40;;
27839;SDS011;15207;42.182;24.308;2023-12-20T02:07:36;56.40;;;33.50;;
27839;SDS011;15207;42.182;24.308;2023-12-20T02:10:02;49.50;;;31.80;;
27839;SDS011;15207;42.182;24.308;2023-12-20T02:12:31;51.35;;;32.75;;
27839;SDS011;15207;42.182;24.308;2023-12-20T02:14:57;56.90;;;31.60;;
27839;SDS011;15207;42.182;24.308;2023-12-20T02:17:22;48.60;;;30.00;;
27839;SDS011;15207;42.182;24.308;2023-12-20T02:19:49;58.50;;;31.90;;
27839;SDS011;15207;42.182;24.308;2023-12-20T02:22:15;43.90;;;27.50;;
27839;SDS011;15207;42.182;24.308;2023-12-20T02:24:40;48.60;;;29.70;;
27839;SDS011;15207;42.182;24.308;2023-12-20T02:27:06;63.60;;;36.30;;
27839;SDS011;15207;42.182;24.308;2023-12-20T02:34:23;50.20;;;29.00;;
27839;SDS011;15207;42.182;24.308;2023-12-20T02:36:49;50.80;;;30.50;;
27839;SDS011;15207;42.182;24.308;2023-12-20T02:39:14;52.90;;;30.90;;
27839;SDS011;15207;42.182;24.308;2023-12-20T02:44:04;49.45;;;28.30;;
27839;SDS011;15207;42.182;24.308;2023-12-20T02:46:30;47.30;;;28.30;;
27839;SDS011;15207;42.182;24.308;2023-12-20T02:48:55;48.00;;;29.80;;
27839;SDS011;15207;42.182;24.308;2023-12-20T02:51:21;43.50;;;27.10;;
27839;SDS011;15207;42.182;24.308;2023-12-20T02:53:46;47.30;;;28.80;;
27839;SDS011;15207;42.182;24.308;2023-12-20T02:56:11;45.20;;;28.20;;
27839;SDS011;15207;42.182;24.308;2023-12-20T02:58:37;45.20;;;27.90;;
27839;SDS011;15207;42.182;24.308;2023-12-20T03:01:02;44.80;;;27.95;;
27839;SDS011;15207;42.182;24.308;2023-12-20T03:03:28;44.10;;;27.20;;
27839;SDS011;15207;42.182;24.308;2023-12-20T03:08:18;42.60;;;27.55;;
27839;SDS011;15207;42.182;24.308;2023-12-20T03:10:44;45.80;;;26.50;;
27839;SDS011;15207;42.182;24.308;2023-12-20T03:13:09;40.90;;;26.20;;
27839;SDS011;15207;42.182;24.308;2023-12-20T03:18:01;44.63;;;26.53;;
27839;SDS011;15207;42.182;24.308;2023-12-20T03:20:26;41.10;;;26.00;;
27839;SDS011;15207;42.182;24.308;2023-12-20T03:22:52;42.60;;;26.50;;
27839;SDS011;15207;42.182;24.308;2023-12-20T03:25:17;38.80;;;25.70;;
27839;SDS011;15207;42.182;24.308;2023-12-20T03:27:42;42.20;;;25.75;;
27839;SDS011;15207;42.182;24.308;2023-12-20T03:32:33;44.10;;;26.10;;
27839;SDS011;15207;42.182;24.308;2023-12-20T03:34:59;45.80;;;27.60;;
27839;SDS011;15207;42.182;24.308;2023-12-20T03:37:24;46.85;;;26.50;;
27839;SDS011;15207;42.182;24.308;2023-12-20T03:39:50;41.90;;;24.45;;
27839;SDS011;15207;42.182;24.308;2023-12-20T03:42:15;43.57;;;25.93;;
27839;SDS011;15207;42.182;24.308;2023-12-20T03:44:41;37.90;;;24.40;;
27839;SDS011;15207;42.182;24.308;2023-12-20T03:49:31;39.00;;;23.30;;
27839;SDS011;15207;42.182;24.308;2023-12-20T03:54:22;34.50;;;22.85;;
27839;SDS011;15207;42.182;24.308;2023-12-20T03:56:47;39.80;;;23.60;;
27839;SDS011;15207;42.182;24.308;2023-12-20T03:59:13;40.15;;;24.85;;
27839;SDS011;15207;42.182;24.308;2023-12-20T04:01:42;33.60;;;22.60;;
27839;SDS011;15207;42.182;24.308;2023-12-20T04:04:09;31.90;;;21.80;;
27839;SDS011;15207;42.182;24.308;2023-12-20T04:09:00;36.95;;;23.25;;
27839;SDS011;15207;42.182;24.308;2023-12-20T04:11:25;34.70;;;22.70;;
27839;SDS011;15207;42.182;24.308;2023-12-20T04:16:16;34.40;;;22.50;;
27839;SDS011;15207;42.182;24.308;2023-12-20T04:21:06;37.00;;;24.80;;
27839;SDS011;15207;42.182;24.308;2023-12-20T04:23:32;45.95;;;28.35;;
27839;SDS011;15207;42.182;24.308;2023-12-20T04:25:58;36.50;;;23.90;;
27839;SDS011;15207;42.182;24.308;2023-12-20T04:28:23;45.80;;;25.90;;
27839;SDS011;15207;42.182;24.308;2023-12-20T04:30:49;44.80;;;27.00;;
27839;SDS011;15207;42.182;24.308;2023-12-20T04:33:14;39.70;;;25.65;;
27839;SDS011;15207;42.182;24.308;2023-12-20T04:35:40;39.55;;;24.90;;
27839;SDS011;15207;42.182;24.308;2023-12-20T04:38:06;39.20;;;24.15;;
27839;SDS011;15207;42.182;24.308;2023-12-20T04:40:32;38.40;;;23.10;;
27839;SDS011;15207;42.182;24.308;2023-12-20T04:42:57;42.70;;;24.90;;
27839;SDS011;15207;42.182;24.308;2023-12-20T04:45:22;39.70;;;23.80;;
27839;SDS011;15207;42.182;24.308;2023-12-20T04:47:49;38.60;;;24.40;;
27839;SDS011;15207;42.182;24.308;2023-12-20T04:50:15;45.30;;;26.87;;
27839;SDS011;15207;42.182;24.308;2023-12-20T04:55:07;43.50;;;25.60;;
27839;SDS011;15207;42.182;24.308;2023-12-20T04:59:59;35.80;;;22.50;;
27839;SDS011;15207;42.182;24.308;2023-12-20T05:04:51;43.45;;;24.40;;
27839;SDS011;15207;42.182;24.308;2023-12-20T05:07:16;41.20;;;24.05;;
27839;SDS011;15207;42.182;24.308;2023-12-20T05:09:41;45.90;;;25.10;;
27839;SDS011;15207;42.182;24.308;2023-12-20T05:12:07;47.00;;;26.25;;
27839;SDS011;15207;42.182;24.308;2023-12-20T05:16:58;54.30;;;29.70;;
27839;SDS011;15207;42.182;24.308;2023-12-20T05:19:24;49.30;;;28.20;;
27839;SDS011;15207;42.182;24.308;2023-12-20T05:24:15;48.70;;;26.20;;
27839;SDS011;15207;42.182;24.308;2023-12-20T05:26:40;42.10;;;26.30;;
27839;SDS011;15207;42.182;24.308;2023-12-20T05:29:05;45.40;;;27.60;;
27839;SDS011;15207;42.182;24.308;2023-12-20T05:31:31;43.90;;;27.10;;
27839;SDS011;15207;42.182;24.308;2023-12-20T05:33:56;43.20;;;25.75;;
27839;SDS011;15207;42.182;24.308;2023-12-20T05:36:22;43.30;;;25.70;;
27839;SDS011;15207;42.182;24.308;2023-12-20T05:38:47;37.40;;;24.30;;
27839;SDS011;15207;42.182;24.308;2023-12-20T05:41:13;44.60;;;26.75;;
27839;SDS011;15207;42.182;24.308;2023-12-20T05:43:39;51.75;;;31.30;;
27839;SDS011;15207;42.182;24.308;2023-12-20T05:46:04;75.70;;;44.20;;
27839;SDS011;15207;42.182;24.308;2023-12-20T05:48:30;250.70;;;121.50;;
27839;SDS011;15207;42.182;24.308;2023-12-20T05:50:55;140.40;;;72.75;;
27839;SDS011;15207;42.182;24.308;2023-12-20T05:53:21;89.00;;;54.20;;
27839;SDS011;15207;42.182;24.308;2023-12-20T05:55:46;45.45;;;28.00;;
27839;SDS011;15207;42.182;24.308;2023-12-20T05:58:11;57.90;;;40.80;;
27839;SDS011;15207;42.182;24.308;2023-12-20T06:00:37;46.60;;;30.20;;
27839;SDS011;15207;42.182;24.308;2023-12-20T06:05:29;44.20;;;28.40;;
27839;SDS011;15207;42.182;24.308;2023-12-20T06:07:55;60.70;;;37.00;;
27839;SDS011;15207;42.182;24.308;2023-12-20T06:10:26;72.25;;;43.25;;
27839;SDS011;15207;42.182;24.308;2023-12-20T06:12:51;71.90;;;42.70;;
27839;SDS011;15207;42.182;24.308;2023-12-20T06:17:42;66.50;;;39.60;;
27839;SDS011;15207;42.182;24.308;2023-12-20T06:22:34;57.20;;;35.20;;
27839;SDS011;15207;42.182;24.308;2023-12-20T06:25:00;41.90;;;27.00;;
27839;SDS011;15207;42.182;24.308;2023-12-20T06:27:25;38.20;;;23.35;;
27839;SDS011;15207;42.182;24.308;2023-12-20T06:29:50;44.90;;;28.00;;
27839;SDS011;15207;42.182;24.308;2023-12-20T06:32:16;47.70;;;28.00;;
27839;SDS011;15207;42.182;24.308;2023-12-20T06:34:41;51.45;;;31.90;;
27839;SDS011;15207;42.182;24.308;2023-12-20T06:37:07;84.20;;;46.70;;
27839;SDS011;15207;42.182;24.308;2023-12-20T06:41:59;73.80;;;43.40;;
27839;SDS011;15207;42.182;24.308;2023-12-20T06:51:40;67.15;;;39.10;;
27839;SDS011;15207;42.182;24.308;2023-12-20T06:54:06;67.10;;;40.80;;
27839;SDS011;15207;42.182;24.308;2023-12-20T06:56:33;64.05;;;39.00;;
27839;SDS011;15207;42.182;24.308;2023-12-20T06:58:58;64.90;;;37.60;;
27839;SDS011;15207;42.182;24.308;2023-12-20T07:01:24;56.80;;;34.70;;
27839;SDS011;15207;42.182;24.308;2023-12-20T07:03:49;55.90;;;32.30;;
27839;SDS011;15207;42.182;24.308;2023-12-20T07:06:14;46.50;;;29.10;;
27839;SDS011;15207;42.182;24.308;2023-12-20T07:08:41;45.75;;;27.75;;
27839;SDS011;15207;42.182;24.308;2023-12-20T07:11:07;47.90;;;29.40;;
27839;SDS011;15207;42.182;24.308;2023-12-20T07:13:32;51.50;;;29.25;;
27839;SDS011;15207;42.182;24.308;2023-12-20T07:15:58;48.60;;;28.00;;
27839;SDS011;15207;42.182;24.308;2023-12-20T07:18:23;48.60;;;28.90;;
27839;SDS011;15207;42.182;24.308;2023-12-20T07:20:49;51.60;;;29.70;;
27839;SDS011;15207;42.182;24.308;2023-12-20T07:23:14;53.30;;;30.70;;
27839;SDS011;15207;42.182;24.308;2023-12-20T07:25:39;53.75;;;30.95;;
27839;SDS011;15207;42.182;24.308;2023-12-20T07:28:05;60.30;;;33.30;;
27839;SDS011;15207;42.182;24.308;2023-12-20T07:30:30;55.80;;;32.40;;
27839;SDS011;15207;42.182;24.308;2023-12-20T07:32:56;61.10;;;36.00;;
27839;SDS011;15207;42.182;24.308;2023-12-20T07:35:23;67.80;;;37.70;;
27839;SDS011;15207;42.182;24.308;2023-12-20T07:37:48;53.15;;;31.85;;
27839;SDS011;15207;42.182;24.308;2023-12-20T07:40:14;51.10;;;31.30;;
27839;SDS011;15207;42.182;24.308;2023-12-20T07:42:42;45.10;;;26.45;;
27839;SDS011;15207;42.182;24.308;2023-12-20T07:47:33;30.35;;;18.95;;
27839;SDS011;15207;42.182;24.308;2023-12-20T07:49:58;29.75;;;18.65;;
27839;SDS011;15207;42.182;24.308;2023-12-20T07:54:49;29.25;;;18.20;;
27839;SDS011;15207;42.182;24.308;2023-12-20T07:59:39;35.30;;;20.90;;
27839;SDS011;15207;42.182;24.308;2023-12-20T08:02:05;34.70;;;21.45;;
27839;SDS011;15207;42.182;24.308;2023-12-20T08:04:31;34.60;;;21.10;;
27839;SDS011;15207;42.182;24.308;2023-12-20T08:06:57;36.70;;;22.00;;
27839;SDS011;15207;42.182;24.308;2023-12-20T08:09:23;35.60;;;20.00;;
27839;SDS011;15207;42.182;24.308;2023-12-20T08:14:15;35.45;;;20.10;;
27839;SDS011;15207;42.182;24.308;2023-12-20T08:16:41;31.70;;;20.70;;
27839;SDS011;15207;42.182;24.308;2023-12-20T08:23:58;32.00;;;19.25;;
27839;SDS011;15207;42.182;24.308;2023-12-20T08:26:25;32.90;;;20.60;;
27839;SDS011;15207;42.182;24.308;2023-12-20T08:28:51;31.90;;;20.70;;
27839;SDS011;15207;42.182;24.308;2023-12-20T08:31:17;31.45;;;19.20;;
27839;SDS011;15207;42.182;24.308;2023-12-20T08:36:09;37.95;;;20.70;;
27839;SDS011;15207;42.182;24.308;2023-12-20T08:38:35;34.30;;;20.10;;
27839;SDS011;15207;42.182;24.308;2023-12-20T08:41:01;35.60;;;22.02;;
27839;SDS011;15207;42.182;24.308;2023-12-20T08:43:27;37.50;;;24.00;;
27839;SDS011;15207;42.182;24.308;2023-12-20T08:45:53;37.10;;;23.60;;
27839;SDS011;15207;42.182;24.308;2023-12-20T08:48:19;38.50;;;23.60;;
27839;SDS011;15207;42.182;24.308;2023-12-20T08:50:44;33.85;;;21.15;;
27839;SDS011;15207;42.182;24.308;2023-12-20T08:55:36;35.30;;;21.40;;
27839;SDS011;15207;42.182;24.308;2023-12-20T08:58:01;32.40;;;20.20;;
27839;SDS011;15207;42.182;24.308;2023-12-20T09:00:26;29.30;;;19.10;;
27839;SDS011;15207;42.182;24.308;2023-12-20T09:02:52;31.85;;;19.05;;
27839;SDS011;15207;42.182;24.308;2023-12-20T09:05:19;31.40;;;20.30;;
27839;SDS011;15207;42.182;24.308;2023-12-20T09:07:44;30.90;;;19.00;;
27839;SDS011;15207;42.182;24.308;2023-12-20T09:12:35;27.45;;;15.85;;
27839;SDS011;15207;42.182;24.308;2023-12-20T09:15:04;30.65;;;14.85;;
27839;SDS011;15207;42.182;24.308;2023-12-20T09:17:30;39.50;;;20.70;;
27839;SDS011;15207;42.182;24.308;2023-12-20T09:19:56;25.70;;;14.20;;
27839;SDS011;15207;42.182;24.308;2023-12-20T09:22:21;32.30;;;14.10;;
27839;SDS011;15207;42.182;24.308;2023-12-20T09:27:12;27.15;;;15.05;;
27839;SDS011;15207;42.182;24.308;2023-12-20T09:29:37;40.70;;;12.60;;
27839;SDS011;15207;42.182;24.308;2023-12-20T09:34:28;24.30;;;11.70;;
27839;SDS011;15207;42.182;24.308;2023-12-20T09:36:54;39.25;;;11.85;;
27839;SDS011;15207;42.182;24.308;2023-12-20T09:39:20;13.95;;;9.40;;
27839;SDS011;15207;42.182;24.308;2023-12-20T09:41:59;28.35;;;10.55;;
27839;SDS011;15207;42.182;24.308;2023-12-20T09:44:27;16.00;;;9.40;;
27839;SDS011;15207;42.182;24.308;2023-12-20T09:46:54;22.90;;;9.40;;
27839;SDS011;15207;42.182;24.308;2023-12-20T09:51:46;21.90;;;8.90;;
27839;SDS011;15207;42.182;24.308;2023-12-20T09:54:15;13.30;;;8.55;;
27839;SDS011;15207;42.182;24.308;2023-12-20T09:59:07;14.40;;;8.75;;
27839;SDS011;15207;42.182;24.308;2023-12-20T10:01:33;20.60;;;9.55;;
27839;SDS011;15207;42.182;24.308;2023-12-20T10:04:00;15.55;;;8.95;;
27839;SDS011;15207;42.182;24.308;2023-12-20T10:06:27;11.70;;;8.60;;
27839;SDS011;15207;42.182;24.308;2023-12-20T10:08:52;18.40;;;8.90;;
27839;SDS011;15207;42.182;24.308;2023-12-20T10:11:18;14.70;;;8.20;;
27839;SDS011;15207;42.182;24.308;2023-12-20T10:13:44;12.73;;;8.73;;
27839;SDS011;15207;42.182;24.308;2023-12-20T10:16:13;13.90;;;9.10;;
27839;SDS011;15207;42.182;24.308;2023-12-20T10:18:38;12.90;;;8.70;;
27839;SDS011;15207;42.182;24.308;2023-12-20T10:21:04;13.70;;;9.05;;
27839;SDS011;15207;42.182;24.308;2023-12-20T10:23:31;18.40;;;9.30;;
27839;SDS011;15207;42.182;24.308;2023-12-20T10:26:00;15.40;;;8.90;;
27839;SDS011;15207;42.182;24.308;2023-12-20T10:28:25;17.05;;;9.50;;
27839;SDS011;15207;42.182;24.308;2023-12-20T10:30:54;14.85;;;9.45;;
27839;SDS011;15207;42.182;24.308;2023-12-20T10:33:26;18.80;;;9.90;;
27839;SDS011;15207;42.182;24.308;2023-12-20T10:35:53;17.10;;;9.90;;
27839;SDS011;15207;42.182;24.308;2023-12-20T10:38:20;13.95;;;9.20;;
27839;SDS011;15207;42.182;24.308;2023-12-20T10:40:46;13.10;;;8.70;;
27839;SDS011;15207;42.182;24.308;2023-12-20T10:45:37;34.50;;;10.10;;
27839;SDS011;15207;42.182;24.308;2023-12-20T10:48:03;22.30;;;10.40;;
27839;SDS011;15207;42.182;24.308;2023-12-20T10:50:29;26.25;;;12.65;;
27839;SDS011;15207;42.182;24.308;2023-12-20T10:52:56;24.95;;;12.40;;
27839;SDS011;15207;42.182;24.308;2023-12-20T10:57:49;22.95;;;13.30;;
27839;SDS011;15207;42.182;24.308;2023-12-20T11:08:00;16.90;;;10.90;;
27839;SDS011;15207;42.182;24.308;2023-12-20T11:13:17;29.40;;;13.20;;
27839;SDS011;15207;42.182;24.308;2023-12-20T11:15:47;20.20;;;13.00;;
27839;SDS011;15207;42.182;24.308;2023-12-20T11:20:40;20.50;;;12.15;;
27839;SDS011;15207;42.182;24.308;2023-12-20T11:30:41;23.20;;;12.80;;
27839;SDS011;15207;42.182;24.308;2023-12-20T11:35:33;30.70;;;12.30;;
27839;SDS011;15207;42.182;24.308;2023-12-20T11:40:25;26.10;;;13.30;;
27839;SDS011;15207;42.182;24.308;2023-12-20T11:42:51;21.60;;;12.10;;
27839;SDS011;15207;42.182;24.308;2023-12-20T11:45:20;21.35;;;11.40;;
27839;SDS011;15207;42.182;24.308;2023-12-20T11:47:47;27.70;;;11.70;;
27839;SDS011;15207;42.182;24.308;2023-12-20T11:50:16;20.70;;;10.30;;
27839;SDS011;15207;42.182;24.308;2023-12-20T11:52:43;16.40;;;11.25;;
27839;SDS011;15207;42.182;24.308;2023-12-20T11:55:09;21.20;;;11.00;;
27839;SDS011;15207;42.182;24.308;2023-12-20T11:57:35;21.60;;;11.80;;
27839;SDS011;15207;42.182;24.308;2023-12-20T12:00:03;21.40;;;12.23;;
27839;SDS011;15207;42.182;24.308;2023-12-20T12:02:29;34.55;;;14.80;;
27839;SDS011;15207;42.182;24.308;2023-12-20T12:04:55;28.50;;;14.00;;
27839;SDS011;15207;42.182;24.308;2023-12-20T12:07:21;22.80;;;12.10;;
27839;SDS011;15207;42.182;24.308;2023-12-20T12:09:47;21.80;;;10.60;;
27839;SDS011;15207;42.182;24.308;2023-12-20T12:14:38;20.60;;;9.30;;
27839;SDS011;15207;42.182;24.308;2023-12-20T12:17:09;14.60;;;9.10;;
27839;SDS011;15207;42.182;24.308;2023-12-20T12:19:39;21.80;;;9.35;;
27839;SDS011;15207;42.182;24.308;2023-12-20T12:22:05;21.00;;;11.70;;
27839;SDS011;15207;42.182;24.308;2023-12-20T12:24:45;18.70;;;12.30;;
27839;SDS011;15207;42.182;24.308;2023-12-20T12:27:15;18.80;;;11.20;;
27839;SDS011;15207;42.182;24.308;2023-12-20T12:29:41;19.70;;;11.10;;
27839;SDS011;15207;42.182;24.308;2023-12-20T12:34:50;21.60;;;12.40;;
27839;SDS011;15207;42.182;24.308;2023-12-20T12:39:40;19.50;;;12.10;;
27839;SDS011;15207;42.182;24.308;2023-12-20T12:42:06;19.10;;;12.55;;
27839;SDS011;15207;42.182;24.308;2023-12-20T12:44:31;28.70;;;13.35;;
27839;SDS011;15207;42.182;24.308;2023-12-20T12:46:57;31.00;;;14.80;;
27839;SDS011;15207;42.182;24.308;2023-12-20T12:49:22;31.90;;;16.30;;
27839;SDS011;15207;42.182;24.308;2023-12-20T12:51:48;32.00;;;16.60;;
27839;SDS011;15207;42.182;24.308;2023-12-20T12:54:13;30.60;;;16.40;;
27839;SDS011;15207;42.182;24.308;2023-12-20T12:56:41;33.55;;;16.55;;
27839;SDS011;15207;42.182;24.308;2023-12-20T13:01:32;29.10;;;15.80;;
27839;SDS011;15207;42.182;24.308;2023-12-20T13:03:57;30.30;;;16.07;;
27839;SDS011;15207;42.182;24.308;2023-12-20T13:06:22;25.65;;;15.70;;
27839;SDS011;15207;42.182;24.308;2023-12-20T13:08:48;32.80;;;16.30;;
27839;SDS011;15207;42.182;24.308;2023-12-20T13:13:39;32.25;;;16.20;;
27839;SDS011;15207;42.182;24.308;2023-12-20T13:16:05;38.05;;;16.85;;
27839;SDS011;15207;42.182;24.308;2023-12-20T13:18:31;41.45;;;17.70;;
27839;SDS011;15207;42.182;24.308;2023-12-20T13:20:56;39.60;;;16.60;;
27839;SDS011;15207;42.182;24.308;2023-12-20T13:23:21;33.40;;;15.80;;
27839;SDS011;15207;42.182;24.308;2023-12-20T13:25:47;32.80;;;15.90;;
27839;SDS011;15207;42.182;24.308;2023-12-20T13:28:13;51.20;;;26.50;;
27839;SDS011;15207;42.182;24.308;2023-12-20T13:30:38;53.70;;;30.50;;
27839;SDS011;15207;42.182;24.308;2023-12-20T13:33:04;58.30;;;31.80;;
27839;SDS011;15207;42.182;24.308;2023-12-20T13:35:30;69.80;;;32.95;;
27839;SDS011;15207;42.182;24.308;2023-12-20T13:40:22;34.65;;;19.20;;
27839;SDS011;15207;42.182;24.308;2023-12-20T13:45:13;43.00;;;19.00;;
27839;SDS011;15207;42.182;24.308;2023-12-20T13:47:39;30.85;;;18.60;;
27839;SDS011;15207;42.182;24.308;2023-12-20T13:50:04;37.50;;;18.60;;
27839;SDS011;15207;42.182;24.308;2023-12-20T13:52:30;33.30;;;19.60;;
27839;SDS011;15207;42.182;24.308;2023-12-20T13:54:55;33.90;;;19.50;;
27839;SDS011;15207;42.182;24.308;2023-12-20T13:57:21;33.10;;;19.90;;
27839;SDS011;15207;42.182;24.308;2023-12-20T13:59:46;35.10;;;18.65;;
27839;SDS011;15207;42.182;24.308;2023-12-20T14:02:12;31.15;;;18.45;;
27839;SDS011;15207;42.182;24.308;2023-12-20T14:07:04;37.90;;;20.20;;
27839;SDS011;15207;42.182;24.308;2023-12-20T14:09:32;39.75;;;20.80;;
27839;SDS011;15207;42.182;24.308;2023-12-20T14:16:49;32.90;;;21.00;;
27839;SDS011;15207;42.182;24.308;2023-12-20T14:24:05;33.15;;;20.10;;
27839;SDS011;15207;42.182;24.308;2023-12-20T14:26:31;31.60;;;18.70;;
27839;SDS011;15207;42.182;24.308;2023-12-20T14:28:56;34.60;;;18.25;;
27839;SDS011;15207;42.182;24.308;2023-12-20T14:33:49;26.20;;;17.30;;
27839;SDS011;15207;42.182;24.308;2023-12-20T14:36:16;37.00;;;16.60;;
27839;SDS011;15207;42.182;24.308;2023-12-20T14:38:42;43.40;;;18.00;;
27839;SDS011;15207;42.182;24.308;2023-12-20T14:41:08;41.30;;;19.30;;
27839;SDS011;15207;42.182;24.308;2023-12-20T14:43:34;43.05;;;19.15;;
27839;SDS011;15207;42.182;24.308;2023-12-20T14:45:59;37.10;;;18.30;;
27839;SDS011;15207;42.182;24.308;2023-12-20T14:48:25;41.20;;;17.60;;
27839;SDS011;15207;42.182;24.308;2023-12-20T14:53:18;40.80;;;19.00;;
27839;SDS011;15207;42.182;24.308;2023-12-20T14:55:44;45.10;;;19.15;;
27839;SDS011;15207;42.182;24.308;2023-12-20T14:58:09;45.70;;;18.15;;
27839;SDS011;15207;42.182;24.308;2023-12-20T15:00:35;40.30;;;18.70;;
27839;SDS011;15207;42.182;24.308;2023-12-20T15:03:00;48.25;;;19.25;;
27839;SDS011;15207;42.182;24.308;2023-12-20T15:05:25;46.05;;;18.80;;
27839;SDS011;15207;42.182;24.308;2023-12-20T15:07:52;42.20;;;18.70;;
27839;SDS011;15207;42.182;24.308;2023-12-20T15:10:17;56.50;;;18.45;;
27839;SDS011;15207;42.182;24.308;2023-12-20T15:12:43;42.00;;;18.10;;
27839;SDS011;15207;42.182;24.308;2023-12-20T15:15:10;51.30;;;19.10;;
27839;SDS011;15207;42.182;24.308;2023-12-20T15:17:35;49.70;;;19.50;;
27839;SDS011;15207;42.182;24.308;2023-12-20T15:20:01;52.95;;;20.40;;
27839;SDS011;15207;42.182;24.308;2023-12-20T15:22:29;59.05;;;20.20;;
27839;SDS011;15207;42.182;24.308;2023-12-20T15:24:55;72.45;;;22.20;;
27839;SDS011;15207;42.182;24.308;2023-12-20T15:27:20;68.60;;;23.10;;
27839;SDS011;15207;42.182;24.308;2023-12-20T15:29:46;68.80;;;21.70;;
27839;SDS011;15207;42.182;24.308;2023-12-20T15:32:11;61.85;;;23.95;;
27839;SDS011;15207;42.182;24.308;2023-12-20T15:34:37;64.35;;;22.25;;
27839;SDS011;15207;42.182;24.308;2023-12-20T15:37:02;70.30;;;21.40;;
27839;SDS011;15207;42.182;24.308;2023-12-20T15:39:28;52.80;;;22.65;;
27839;SDS011;15207;42.182;24.308;2023-12-20T15:41:53;53.05;;;21.85;;
27839;SDS011;15207;42.182;24.308;2023-12-20T15:46:44;43.70;;;20.50;;
27839;SDS011;15207;42.182;24.308;2023-12-20T15:51:38;46.20;;;22.60;;
27839;SDS011;15207;42.182;24.308;2023-12-20T15:54:03;46.10;;;21.60;;
27839;SDS011;15207;42.182;24.308;2023-12-20T15:56:34;49.00;;;21.90;;
27839;SDS011;15207;42.182;24.308;2023-12-20T15:59:00;45.35;;;22.55;;
27839;SDS011;15207;42.182;24.308;2023-12-20T16:01:25;69.50;;;28.30;;
27839;SDS011;15207;42.182;24.308;2023-12-20T16:03:51;58.10;;;26.40;;
27839;SDS011;15207;42.182;24.308;2023-12-20T16:13:32;64.80;;;25.20;;
27839;SDS011;15207;42.182;24.308;2023-12-20T16:16:00;56.65;;;23.95;;
27839;SDS011;15207;42.182;24.308;2023-12-20T16:18:26;52.50;;;23.50;;
27839;SDS011;15207;42.182;24.308;2023-12-20T16:20:53;52.70;;;23.60;;
27839;SDS011;15207;42.182;24.308;2023-12-20T16:23:18;53.60;;;27.30;;
27839;SDS011;15207;42.182;24.308;2023-12-20T16:25:44;122.70;;;57.50;;
27839;SDS011;15207;42.182;24.308;2023-12-20T16:30:35;121.35;;;61.65;;
27839;SDS011;15207;42.182;24.308;2023-12-20T16:33:00;130.20;;;65.70;;
27839;SDS011;15207;42.182;24.308;2023-12-20T16:35:27;160.20;;;77.10;;
27839;SDS011;15207;42.182;24.308;2023-12-20T16:37:52;140.40;;;64.75;;
27839;SDS011;15207;42.182;24.308;2023-12-20T16:42:49;131.90;;;64.45;;
27839;SDS011;15207;42.182;24.308;2023-12-20T16:45:17;145.90;;;71.30;;
27839;SDS011;15207;42.182;24.308;2023-12-20T16:50:07;135.55;;;67.90;;
27839;SDS011;15207;42.182;24.308;2023-12-20T16:52:34;124.00;;;63.00;;
27839;SDS011;15207;42.182;24.308;2023-12-20T16:54:59;118.85;;;60.50;;
27839;SDS011;15207;42.182;24.308;2023-12-20T16:57:25;131.15;;;64.20;;
27839;SDS011;15207;42.182;24.308;2023-12-20T16:59:50;111.15;;;54.80;;
27839;SDS011;15207;42.182;24.308;2023-12-20T17:04:41;93.20;;;49.80;;
27839;SDS011;15207;42.182;24.308;2023-12-20T17:11:57;119.90;;;62.50;;
27839;SDS011;15207;42.182;24.308;2023-12-20T17:14:22;144.90;;;71.30;;